sensor_id;sensor_type;location;lat;lon;timestamp;P1;durP1;ratioP1;P2;durP2;ratioP2
1715;SDS011;855;48.824;9.220;2022-08-26T00:02:09;14.40;;;7.93;;
1715;SDS011;855;48.824;9.220;2022-08-26T00:04:36;13.90;;;7.70;;
1715;SDS011;855;48.824;9.220;2022-08-26T00:07:04;11.47;;;6.90;;
1715;SDS011;855;48.824;9.220;2022-08-26T00:09:31;11.30;;;6.93;;
1715;SDS011;855;48.824;9.220;2022-08-26T00:11:58;9.63;;;6.70;;
1715;SDS011;855;48.824;9.220;2022-08-26T00:14:25;9.40;;;6.63;;
1715;SDS011;855;48.824;9.220;2022-08-26T00:16:52;13.27;;;6.73;;
1715;SDS011;855;48.824;9.220;2022-08-26T00:19:20;15.33;;;7.73;;
1715;SDS011;855;48.824;9.220;2022-08-26T00:21:47;10.73;;;7.10;;
1715;SDS011;855;48.824;9.220;2022-08-26T00:24:16;12.00;;;7.53;;
1715;SDS011;855;48.824;9.220;2022-08-26T00:26:44;17.90;;;8.20;;
1715;SDS011;855;48.824;9.220;2022-08-26T00:29:11;9.27;;;6.60;;
1715;SDS011;855;48.824;9.220;2022-08-26T00:31:38;12.20;;;7.33;;
1715;SDS011;855;48.824;9.220;2022-08-26T00:34:06;12.57;;;7.20;;
1715;SDS011;855;48.824;9.220;2022-08-26T00:36:32;14.93;;;7.17;;
1715;SDS011;855;48.824;9.220;2022-08-26T00:38:59;11.50;;;7.20;;
1715;SDS011;855;48.824;9.220;2022-08-26T00:41:27;8.90;;;6.60;;
1715;SDS011;855;48.824;9.220;2022-08-26T00:43:54;9.73;;;7.00;;
1715;SDS011;855;48.824;9.220;2022-08-26T00:46:22;10.50;;;7.40;;
1715;SDS011;855;48.824;9.220;2022-08-26T00:48:53;11.63;;;7.10;;
1715;SDS011;855;48.824;9.220;2022-08-26T00:51:25;10.40;;;6.80;;
1715;SDS011;855;48.824;9.220;2022-08-26T00:53:53;11.10;;;7.93;;
1715;SDS011;855;48.824;9.220;2022-08-26T00:56:23;12.53;;;7.10;;
1715;SDS011;855;48.824;9.220;2022-08-26T00:58:58;14.73;;;7.73;;
1715;SDS011;855;48.824;9.220;2022-08-26T01:01:27;17.97;;;8.17;;
1715;SDS011;855;48.824;9.220;2022-08-26T01:03:55;14.13;;;8.10;;
1715;SDS011;855;48.824;9.220;2022-08-26T01:06:22;12.77;;;7.30;;
1715;SDS011;855;48.824;9.220;2022-08-26T01:08:50;13.23;;;7.27;;
1715;SDS011;855;48.824;9.220;2022-08-26T01:11:16;13.20;;;8.70;;
1715;SDS011;855;48.824;9.220;2022-08-26T01:13:44;14.30;;;8.43;;
1715;SDS011;855;48.824;9.220;2022-08-26T01:16:13;12.43;;;8.10;;
1715;SDS011;855;48.824;9.220;2022-08-26T01:18:41;14.20;;;8.50;;
1715;SDS011;855;48.824;9.220;2022-08-26T01:21:11;15.83;;;7.20;;
1715;SDS011;855;48.824;9.220;2022-08-26T01:23:45;12.47;;;7.67;;
1715;SDS011;855;48.824;9.220;2022-08-26T01:26:15;10.90;;;7.23;;
1715;SDS011;855;48.824;9.220;2022-08-26T01:28:44;10.73;;;6.77;;
1715;SDS011;855;48.824;9.220;2022-08-26T01:31:12;13.87;;;7.63;;
1715;SDS011;855;48.824;9.220;2022-08-26T01:33:42;10.73;;;7.43;;
1715;SDS011;855;48.824;9.220;2022-08-26T01:36:16;12.97;;;7.30;;
1715;SDS011;855;48.824;9.220;2022-08-26T01:38:44;13.67;;;7.03;;
1715;SDS011;855;48.824;9.220;2022-08-26T01:41:12;10.23;;;7.37;;
1715;SDS011;855;48.824;9.220;2022-08-26T01:43:40;13.47;;;8.10;;
1715;SDS011;855;48.824;9.220;2022-08-26T01:46:10;14.60;;;7.90;;
1715;SDS011;855;48.824;9.220;2022-08-26T01:48:39;10.80;;;7.67;;
1715;SDS011;855;48.824;9.220;2022-08-26T01:51:08;13.03;;;7.43;;
1715;SDS011;855;48.824;9.220;2022-08-26T01:53:38;21.23;;;7.80;;
1715;SDS011;855;48.824;9.220;2022-08-26T01:56:08;11.00;;;7.30;;
1715;SDS011;855;48.824;9.220;2022-08-26T01:58:37;13.80;;;7.57;;
1715;SDS011;855;48.824;9.220;2022-08-26T02:01:07;13.23;;;7.53;;
1715;SDS011;855;48.824;9.220;2022-08-26T02:03:35;16.57;;;7.73;;
1715;SDS011;855;48.824;9.220;2022-08-26T02:06:10;11.30;;;7.57;;
1715;SDS011;855;48.824;9.220;2022-08-26T02:08:38;18.97;;;8.20;;
1715;SDS011;855;48.824;9.220;2022-08-26T02:11:09;13.13;;;6.93;;
1715;SDS011;855;48.824;9.220;2022-08-26T02:13:37;11.33;;;7.00;;
1715;SDS011;855;48.824;9.220;2022-08-26T02:16:06;13.30;;;7.70;;
1715;SDS011;855;48.824;9.220;2022-08-26T02:18:35;12.15;;;7.80;;
1715;SDS011;855;48.824;9.220;2022-08-26T02:21:04;12.13;;;7.27;;
1715;SDS011;855;48.824;9.220;2022-08-26T02:23:32;12.73;;;7.97;;
1715;SDS011;855;48.824;9.220;2022-08-26T02:26:02;16.87;;;7.97;;
1715;SDS011;855;48.824;9.220;2022-08-26T02:28:34;19.67;;;8.03;;
1715;SDS011;855;48.824;9.220;2022-08-26T02:31:05;13.33;;;7.60;;
1715;SDS011;855;48.824;9.220;2022-08-26T02:33:32;11.63;;;7.47;;
1715;SDS011;855;48.824;9.220;2022-08-26T02:35:59;13.53;;;7.23;;
1715;SDS011;855;48.824;9.220;2022-08-26T02:38:26;18.07;;;8.20;;
1715;SDS011;855;48.824;9.220;2022-08-26T02:40:53;14.43;;;7.67;;
1715;SDS011;855;48.824;9.220;2022-08-26T02:43:20;12.07;;;8.20;;
1715;SDS011;855;48.824;9.220;2022-08-26T02:45:49;14.20;;;8.37;;
1715;SDS011;855;48.824;9.220;2022-08-26T02:48:17;20.03;;;8.63;;
1715;SDS011;855;48.824;9.220;2022-08-26T02:50:45;12.67;;;7.57;;
1715;SDS011;855;48.824;9.220;2022-08-26T02:53:13;15.97;;;8.67;;
1715;SDS011;855;48.824;9.220;2022-08-26T02:55:41;11.13;;;7.77;;
1715;SDS011;855;48.824;9.220;2022-08-26T02:58:08;10.90;;;7.70;;
1715;SDS011;855;48.824;9.220;2022-08-26T03:00:35;16.73;;;8.43;;
1715;SDS011;855;48.824;9.220;2022-08-26T03:03:04;15.67;;;7.83;;
1715;SDS011;855;48.824;9.220;2022-08-26T03:05:31;20.37;;;8.30;;
1715;SDS011;855;48.824;9.220;2022-08-26T03:07:58;13.53;;;8.53;;
1715;SDS011;855;48.824;9.220;2022-08-26T03:10:25;13.37;;;8.20;;
1715;SDS011;855;48.824;9.220;2022-08-26T03:12:52;12.37;;;7.83;;
1715;SDS011;855;48.824;9.220;2022-08-26T03:15:19;14.13;;;8.10;;
1715;SDS011;855;48.824;9.220;2022-08-26T03:17:46;11.70;;;7.90;;
1715;SDS011;855;48.824;9.220;2022-08-26T03:20:15;16.40;;;8.33;;
1715;SDS011;855;48.824;9.220;2022-08-26T03:22:43;17.50;;;8.10;;
1715;SDS011;855;48.824;9.220;2022-08-26T03:25:11;15.90;;;8.70;;
1715;SDS011;855;48.824;9.220;2022-08-26T03:27:40;12.97;;;8.70;;
1715;SDS011;855;48.824;9.220;2022-08-26T03:30:08;13.40;;;8.03;;
1715;SDS011;855;48.824;9.220;2022-08-26T03:32:53;20.30;;;9.93;;
1715;SDS011;855;48.824;9.220;2022-08-26T03:35:22;19.80;;;9.90;;
1715;SDS011;855;48.824;9.220;2022-08-26T03:37:49;18.93;;;10.13;;
1715;SDS011;855;48.824;9.220;2022-08-26T03:40:16;14.37;;;8.70;;
1715;SDS011;855;48.824;9.220;2022-08-26T03:42:44;12.90;;;7.90;;
1715;SDS011;855;48.824;9.220;2022-08-26T03:45:12;14.87;;;8.97;;
1715;SDS011;855;48.824;9.220;2022-08-26T03:47:40;18.77;;;9.00;;
1715;SDS011;855;48.824;9.220;2022-08-26T03:50:10;14.87;;;9.33;;
1715;SDS011;855;48.824;9.220;2022-08-26T03:52:40;24.50;;;9.50;;
1715;SDS011;855;48.824;9.220;2022-08-26T03:55:08;16.90;;;8.70;;
1715;SDS011;855;48.824;9.220;2022-08-26T03:57:35;13.90;;;8.87;;
1715;SDS011;855;48.824;9.220;2022-08-26T04:00:03;19.37;;;9.33;;
1715;SDS011;855;48.824;9.220;2022-08-26T04:02:32;16.93;;;9.87;;
1715;SDS011;855;48.824;9.220;2022-08-26T04:04:58;15.20;;;9.40;;
1715;SDS011;855;48.824;9.220;2022-08-26T04:07:25;18.00;;;9.73;;
1715;SDS011;855;48.824;9.220;2022-08-26T04:09:54;15.37;;;9.27;;
1715;SDS011;855;48.824;9.220;2022-08-26T04:12:22;16.30;;;9.70;;
1715;SDS011;855;48.824;9.220;2022-08-26T04:14:49;20.23;;;10.17;;
1715;SDS011;855;48.824;9.220;2022-08-26T04:17:16;18.73;;;10.00;;
1715;SDS011;855;48.824;9.220;2022-08-26T04:19:43;18.90;;;10.70;;
1715;SDS011;855;48.824;9.220;2022-08-26T04:22:10;21.50;;;11.27;;
1715;SDS011;855;48.824;9.220;2022-08-26T04:24:37;19.07;;;9.63;;
1715;SDS011;855;48.824;9.220;2022-08-26T04:27:06;15.20;;;9.13;;
1715;SDS011;855;48.824;9.220;2022-08-26T04:29:34;19.07;;;10.13;;
1715;SDS011;855;48.824;9.220;2022-08-26T04:32:03;18.50;;;10.80;;
1715;SDS011;855;48.824;9.220;2022-08-26T04:34:29;17.03;;;10.43;;
1715;SDS011;855;48.824;9.220;2022-08-26T04:36:57;19.20;;;10.60;;
1715;SDS011;855;48.824;9.220;2022-08-26T04:39:24;17.20;;;10.63;;
1715;SDS011;855;48.824;9.220;2022-08-26T04:41:51;20.13;;;11.27;;
1715;SDS011;855;48.824;9.220;2022-08-26T04:44:20;16.40;;;10.90;;
1715;SDS011;855;48.824;9.220;2022-08-26T04:46:48;21.47;;;11.80;;
1715;SDS011;855;48.824;9.220;2022-08-26T04:49:15;18.10;;;10.17;;
1715;SDS011;855;48.824;9.220;2022-08-26T04:51:43;19.00;;;11.20;;
1715;SDS011;855;48.824;9.220;2022-08-26T04:54:10;20.50;;;10.87;;
1715;SDS011;855;48.824;9.220;2022-08-26T04:56:38;20.00;;;11.20;;
1715;SDS011;855;48.824;9.220;2022-08-26T04:59:08;21.80;;;11.13;;
1715;SDS011;855;48.824;9.220;2022-08-26T05:01:38;20.70;;;10.43;;
1715;SDS011;855;48.824;9.220;2022-08-26T05:04:07;15.83;;;10.40;;
1715;SDS011;855;48.824;9.220;2022-08-26T05:06:35;18.03;;;11.03;;
1715;SDS011;855;48.824;9.220;2022-08-26T05:09:02;18.67;;;10.37;;
1715;SDS011;855;48.824;9.220;2022-08-26T05:11:29;13.97;;;8.40;;
1715;SDS011;855;48.824;9.220;2022-08-26T05:13:56;15.63;;;9.03;;
1715;SDS011;855;48.824;9.220;2022-08-26T05:16:23;21.17;;;9.80;;
1715;SDS011;855;48.824;9.220;2022-08-26T05:18:51;17.53;;;9.70;;
1715;SDS011;855;48.824;9.220;2022-08-26T05:21:20;20.47;;;10.50;;
1715;SDS011;855;48.824;9.220;2022-08-26T05:23:49;20.43;;;9.50;;
1715;SDS011;855;48.824;9.220;2022-08-26T05:26:16;27.10;;;12.23;;
1715;SDS011;855;48.824;9.220;2022-08-26T05:28:44;16.83;;;9.47;;
1715;SDS011;855;48.824;9.220;2022-08-26T05:31:12;15.63;;;10.90;;
1715;SDS011;855;48.824;9.220;2022-08-26T05:33:40;22.70;;;11.07;;
1715;SDS011;855;48.824;9.220;2022-08-26T05:36:10;21.57;;;10.90;;
1715;SDS011;855;48.824;9.220;2022-08-26T05:38:39;14.70;;;9.27;;
1715;SDS011;855;48.824;9.220;2022-08-26T05:41:12;12.47;;;9.03;;
1715;SDS011;855;48.824;9.220;2022-08-26T05:43:39;10.93;;;7.73;;
1715;SDS011;855;48.824;9.220;2022-08-26T05:46:06;17.30;;;9.27;;
1715;SDS011;855;48.824;9.220;2022-08-26T05:48:33;15.30;;;8.73;;
1715;SDS011;855;48.824;9.220;2022-08-26T05:51:01;17.50;;;9.57;;
1715;SDS011;855;48.824;9.220;2022-08-26T05:53:30;15.87;;;9.00;;
1715;SDS011;855;48.824;9.220;2022-08-26T05:55:57;15.50;;;9.07;;
1715;SDS011;855;48.824;9.220;2022-08-26T05:58:25;19.30;;;9.47;;
1715;SDS011;855;48.824;9.220;2022-08-26T06:00:56;16.13;;;8.80;;
1715;SDS011;855;48.824;9.220;2022-08-26T06:03:25;12.97;;;9.03;;
1715;SDS011;855;48.824;9.220;2022-08-26T06:05:53;15.30;;;9.40;;
1715;SDS011;855;48.824;9.220;2022-08-26T06:08:20;19.80;;;9.50;;
1715;SDS011;855;48.824;9.220;2022-08-26T06:10:49;15.30;;;9.43;;
1715;SDS011;855;48.824;9.220;2022-08-26T06:13:18;17.00;;;8.43;;
1715;SDS011;855;48.824;9.220;2022-08-26T06:15:48;27.40;;;11.17;;
1715;SDS011;855;48.824;9.220;2022-08-26T06:18:17;11.93;;;8.40;;
1715;SDS011;855;48.824;9.220;2022-08-26T06:20:45;20.67;;;8.63;;
1715;SDS011;855;48.824;9.220;2022-08-26T06:23:14;15.43;;;8.57;;
1715;SDS011;855;48.824;9.220;2022-08-26T06:25:59;16.80;;;9.27;;
1715;SDS011;855;48.824;9.220;2022-08-26T06:28:27;14.60;;;8.97;;
1715;SDS011;855;48.824;9.220;2022-08-26T06:30:54;20.20;;;9.43;;
1715;SDS011;855;48.824;9.220;2022-08-26T06:33:21;16.63;;;9.37;;
1715;SDS011;855;48.824;9.220;2022-08-26T06:35:50;19.77;;;8.80;;
1715;SDS011;855;48.824;9.220;2022-08-26T06:38:18;14.80;;;9.10;;
1715;SDS011;855;48.824;9.220;2022-08-26T06:40:45;16.47;;;9.50;;
1715;SDS011;855;48.824;9.220;2022-08-26T06:43:15;18.93;;;8.00;;
1715;SDS011;855;48.824;9.220;2022-08-26T06:45:44;13.80;;;8.37;;
1715;SDS011;855;48.824;9.220;2022-08-26T06:48:11;16.57;;;8.47;;
1715;SDS011;855;48.824;9.220;2022-08-26T06:50:40;19.97;;;9.10;;
1715;SDS011;855;48.824;9.220;2022-08-26T06:53:08;12.33;;;7.97;;
1715;SDS011;855;48.824;9.220;2022-08-26T06:55:38;25.73;;;9.33;;
1715;SDS011;855;48.824;9.220;2022-08-26T06:58:05;15.70;;;7.50;;
1715;SDS011;855;48.824;9.220;2022-08-26T07:00:35;15.83;;;8.30;;
1715;SDS011;855;48.824;9.220;2022-08-26T07:03:02;16.83;;;8.57;;
1715;SDS011;855;48.824;9.220;2022-08-26T07:05:30;17.90;;;7.77;;
1715;SDS011;855;48.824;9.220;2022-08-26T07:07:59;18.53;;;9.07;;
1715;SDS011;855;48.824;9.220;2022-08-26T07:10:26;16.07;;;7.90;;
1715;SDS011;855;48.824;9.220;2022-08-26T07:12:53;14.67;;;8.00;;
1715;SDS011;855;48.824;9.220;2022-08-26T07:15:19;15.83;;;8.03;;
1715;SDS011;855;48.824;9.220;2022-08-26T07:17:48;14.90;;;7.47;;
1715;SDS011;855;48.824;9.220;2022-08-26T07:20:15;13.97;;;7.43;;
1715;SDS011;855;48.824;9.220;2022-08-26T07:22:42;16.03;;;7.80;;
1715;SDS011;855;48.824;9.220;2022-08-26T07:25:09;13.23;;;8.50;;
1715;SDS011;855;48.824;9.220;2022-08-26T07:27:36;13.37;;;7.77;;
1715;SDS011;855;48.824;9.220;2022-08-26T07:30:04;11.87;;;7.93;;
1715;SDS011;855;48.824;9.220;2022-08-26T07:32:32;16.83;;;7.90;;
1715;SDS011;855;48.824;9.220;2022-08-26T07:35:00;19.63;;;7.80;;
1715;SDS011;855;48.824;9.220;2022-08-26T07:37:27;18.07;;;8.10;;
1715;SDS011;855;48.824;9.220;2022-08-26T07:39:54;11.73;;;7.87;;
1715;SDS011;855;48.824;9.220;2022-08-26T07:42:22;12.60;;;7.60;;
1715;SDS011;855;48.824;9.220;2022-08-26T07:44:49;12.17;;;6.90;;
1715;SDS011;855;48.824;9.220;2022-08-26T07:47:16;14.63;;;8.70;;
1715;SDS011;855;48.824;9.220;2022-08-26T07:49:43;13.00;;;7.30;;
1715;SDS011;855;48.824;9.220;2022-08-26T07:52:11;12.57;;;7.67;;
1715;SDS011;855;48.824;9.220;2022-08-26T07:54:38;12.87;;;7.30;;
1715;SDS011;855;48.824;9.220;2022-08-26T07:57:05;17.13;;;6.73;;
1715;SDS011;855;48.824;9.220;2022-08-26T07:59:32;13.97;;;7.30;;
1715;SDS011;855;48.824;9.220;2022-08-26T08:01:59;11.97;;;7.47;;
1715;SDS011;855;48.824;9.220;2022-08-26T08:04:26;17.40;;;7.63;;
1715;SDS011;855;48.824;9.220;2022-08-26T08:06:54;11.30;;;6.80;;
1715;SDS011;855;48.824;9.220;2022-08-26T08:09:22;9.93;;;6.53;;
1715;SDS011;855;48.824;9.220;2022-08-26T08:11:49;15.70;;;7.17;;
1715;SDS011;855;48.824;9.220;2022-08-26T08:14:17;13.50;;;8.93;;
1715;SDS011;855;48.824;9.220;2022-08-26T08:16:44;16.73;;;7.27;;
1715;SDS011;855;48.824;9.220;2022-08-26T08:19:11;16.93;;;8.10;;
1715;SDS011;855;48.824;9.220;2022-08-26T08:21:39;13.47;;;8.17;;
1715;SDS011;855;48.824;9.220;2022-08-26T08:24:06;13.30;;;7.70;;
1715;SDS011;855;48.824;9.220;2022-08-26T08:26:35;18.23;;;8.10;;
1715;SDS011;855;48.824;9.220;2022-08-26T08:29:02;14.20;;;7.83;;
1715;SDS011;855;48.824;9.220;2022-08-26T08:31:30;13.97;;;8.13;;
1715;SDS011;855;48.824;9.220;2022-08-26T08:33:58;15.33;;;8.27;;
1715;SDS011;855;48.824;9.220;2022-08-26T08:36:25;15.30;;;8.13;;
1715;SDS011;855;48.824;9.220;2022-08-26T08:38:52;14.17;;;7.90;;
1715;SDS011;855;48.824;9.220;2022-08-26T08:41:25;12.37;;;7.37;;
1715;SDS011;855;48.824;9.220;2022-08-26T08:44:09;10.87;;;7.10;;
1715;SDS011;855;48.824;9.220;2022-08-26T08:46:42;9.90;;;7.00;;
1715;SDS011;855;48.824;9.220;2022-08-26T08:49:10;12.37;;;7.40;;
1715;SDS011;855;48.824;9.220;2022-08-26T08:51:41;13.93;;;7.07;;
1715;SDS011;855;48.824;9.220;2022-08-26T08:54:12;11.23;;;6.90;;
1715;SDS011;855;48.824;9.220;2022-08-26T08:56:40;16.87;;;7.63;;
1715;SDS011;855;48.824;9.220;2022-08-26T08:59:13;11.83;;;8.30;;
1715;SDS011;855;48.824;9.220;2022-08-26T09:01:52;16.57;;;8.73;;
1715;SDS011;855;48.824;9.220;2022-08-26T09:07:30;12.77;;;8.00;;
1715;SDS011;855;48.824;9.220;2022-08-26T09:10:03;18.83;;;8.20;;
1715;SDS011;855;48.824;9.220;2022-08-26T09:12:32;13.23;;;7.77;;
1715;SDS011;855;48.824;9.220;2022-08-26T09:15:03;18.73;;;7.40;;
1715;SDS011;855;48.824;9.220;2022-08-26T09:17:36;13.13;;;7.43;;
1715;SDS011;855;48.824;9.220;2022-08-26T09:20:12;17.10;;;7.70;;
1715;SDS011;855;48.824;9.220;2022-08-26T09:22:43;16.67;;;9.00;;
1715;SDS011;855;48.824;9.220;2022-08-26T09:25:11;17.03;;;8.17;;
1715;SDS011;855;48.824;9.220;2022-08-26T09:27:40;14.23;;;7.00;;
1715;SDS011;855;48.824;9.220;2022-08-26T09:30:12;10.67;;;6.77;;
1715;SDS011;855;48.824;9.220;2022-08-26T09:32:41;14.80;;;6.67;;
1715;SDS011;855;48.824;9.220;2022-08-26T09:35:21;14.60;;;7.77;;
1715;SDS011;855;48.824;9.220;2022-08-26T09:37:50;15.57;;;6.47;;
1715;SDS011;855;48.824;9.220;2022-08-26T09:40:20;12.50;;;6.90;;
1715;SDS011;855;48.824;9.220;2022-08-26T09:45:42;12.43;;;6.10;;
1715;SDS011;855;48.824;9.220;2022-08-26T09:48:10;13.80;;;6.30;;
1715;SDS011;855;48.824;9.220;2022-08-26T09:50:51;10.83;;;5.57;;
1715;SDS011;855;48.824;9.220;2022-08-26T09:53:20;13.20;;;6.13;;
1715;SDS011;855;48.824;9.220;2022-08-26T09:55:49;11.97;;;4.83;;
1715;SDS011;855;48.824;9.220;2022-08-26T09:58:30;8.60;;;4.80;;
1715;SDS011;855;48.824;9.220;2022-08-26T10:01:01;13.43;;;5.50;;
1715;SDS011;855;48.824;9.220;2022-08-26T10:03:31;12.33;;;5.30;;
1715;SDS011;855;48.824;9.220;2022-08-26T10:06:01;11.40;;;6.30;;
1715;SDS011;855;48.824;9.220;2022-08-26T10:08:31;8.13;;;5.73;;
1715;SDS011;855;48.824;9.220;2022-08-26T10:11:01;10.27;;;5.90;;
1715;SDS011;855;48.824;9.220;2022-08-26T10:13:33;12.40;;;5.90;;
1715;SDS011;855;48.824;9.220;2022-08-26T10:16:09;12.73;;;5.73;;
1715;SDS011;855;48.824;9.220;2022-08-26T10:18:44;16.43;;;6.23;;
1715;SDS011;855;48.824;9.220;2022-08-26T10:21:16;16.53;;;6.27;;
1715;SDS011;855;48.824;9.220;2022-08-26T10:23:47;13.03;;;6.70;;
1715;SDS011;855;48.824;9.220;2022-08-26T10:26:17;13.70;;;6.37;;
1715;SDS011;855;48.824;9.220;2022-08-26T10:28:49;12.20;;;6.17;;
1715;SDS011;855;48.824;9.220;2022-08-26T10:31:24;11.93;;;6.60;;
1715;SDS011;855;48.824;9.220;2022-08-26T10:33:54;12.60;;;5.90;;
1715;SDS011;855;48.824;9.220;2022-08-26T10:36:22;11.90;;;5.70;;
1715;SDS011;855;48.824;9.220;2022-08-26T10:39:10;24.63;;;6.57;;
1715;SDS011;855;48.824;9.220;2022-08-26T10:41:42;23.93;;;6.30;;
1715;SDS011;855;48.824;9.220;2022-08-26T10:44:14;14.10;;;5.73;;
1715;SDS011;855;48.824;9.220;2022-08-26T10:46:46;16.53;;;6.43;;
1715;SDS011;855;48.824;9.220;2022-08-26T10:49:17;12.50;;;5.60;;
1715;SDS011;855;48.824;9.220;2022-08-26T10:51:46;17.17;;;6.00;;
1715;SDS011;855;48.824;9.220;2022-08-26T10:54:21;20.10;;;6.33;;
1715;SDS011;855;48.824;9.220;2022-08-26T10:56:55;10.43;;;6.67;;
1715;SDS011;855;48.824;9.220;2022-08-26T10:59:28;12.70;;;7.13;;
1715;SDS011;855;48.824;9.220;2022-08-26T11:02:10;12.53;;;6.50;;
1715;SDS011;855;48.824;9.220;2022-08-26T11:04:46;18.23;;;5.60;;
1715;SDS011;855;48.824;9.220;2022-08-26T11:07:28;14.83;;;6.40;;
1715;SDS011;855;48.824;9.220;2022-08-26T11:10:00;17.13;;;6.20;;
1715;SDS011;855;48.824;9.220;2022-08-26T11:18:44;12.53;;;6.37;;
1715;SDS011;855;48.824;9.220;2022-08-26T11:27:11;14.87;;;7.80;;
1715;SDS011;855;48.824;9.220;2022-08-26T11:30:00;17.80;;;6.43;;
1715;SDS011;855;48.824;9.220;2022-08-26T11:32:44;20.63;;;7.80;;
1715;SDS011;855;48.824;9.220;2022-08-26T11:38:15;18.00;;;8.30;;
1715;SDS011;855;48.824;9.220;2022-08-26T11:40:45;15.03;;;7.00;;
1715;SDS011;855;48.824;9.220;2022-08-26T11:43:30;14.13;;;7.87;;
1715;SDS011;855;48.824;9.220;2022-08-26T11:45:59;20.07;;;7.90;;
1715;SDS011;855;48.824;9.220;2022-08-26T11:48:31;14.50;;;7.40;;
1715;SDS011;855;48.824;9.220;2022-08-26T11:51:01;13.37;;;7.10;;
1715;SDS011;855;48.824;9.220;2022-08-26T11:53:32;29.60;;;8.33;;
1715;SDS011;855;48.824;9.220;2022-08-26T11:56:03;13.70;;;6.63;;
1715;SDS011;855;48.824;9.220;2022-08-26T11:58:31;15.30;;;8.07;;
1715;SDS011;855;48.824;9.220;2022-08-26T12:01:00;12.20;;;7.13;;
1715;SDS011;855;48.824;9.220;2022-08-26T12:03:33;18.20;;;7.80;;
1715;SDS011;855;48.824;9.220;2022-08-26T12:06:10;18.57;;;5.90;;
1715;SDS011;855;48.824;9.220;2022-08-26T12:08:40;12.93;;;6.77;;
1715;SDS011;855;48.824;9.220;2022-08-26T12:11:09;15.67;;;6.43;;
1715;SDS011;855;48.824;9.220;2022-08-26T12:13:38;14.20;;;6.90;;
1715;SDS011;855;48.824;9.220;2022-08-26T12:16:06;11.60;;;6.63;;
1715;SDS011;855;48.824;9.220;2022-08-26T12:18:35;16.93;;;6.60;;
1715;SDS011;855;48.824;9.220;2022-08-26T12:21:11;14.90;;;7.30;;
1715;SDS011;855;48.824;9.220;2022-08-26T12:23:42;18.50;;;6.97;;
1715;SDS011;855;48.824;9.220;2022-08-26T12:26:13;17.03;;;6.77;;
1715;SDS011;855;48.824;9.220;2022-08-26T12:28:49;13.70;;;7.67;;
1715;SDS011;855;48.824;9.220;2022-08-26T12:31:19;14.20;;;6.80;;
1715;SDS011;855;48.824;9.220;2022-08-26T12:33:48;22.40;;;7.10;;
1715;SDS011;855;48.824;9.220;2022-08-26T12:36:19;15.63;;;6.80;;
1715;SDS011;855;48.824;9.220;2022-08-26T12:38:51;20.37;;;8.00;;
1715;SDS011;855;48.824;9.220;2022-08-26T12:41:39;25.00;;;8.67;;
1715;SDS011;855;48.824;9.220;2022-08-26T12:47:03;23.37;;;8.70;;
1715;SDS011;855;48.824;9.220;2022-08-26T12:49:35;15.00;;;7.53;;
1715;SDS011;855;48.824;9.220;2022-08-26T12:52:05;14.47;;;7.87;;
1715;SDS011;855;48.824;9.220;2022-08-26T12:54:53;16.33;;;7.17;;
1715;SDS011;855;48.824;9.220;2022-08-26T12:57:25;26.10;;;8.80;;
1715;SDS011;855;48.824;9.220;2022-08-26T13:03:03;18.73;;;7.33;;
1715;SDS011;855;48.824;9.220;2022-08-26T13:05:50;21.30;;;7.00;;
1715;SDS011;855;48.824;9.220;2022-08-26T13:08:25;29.43;;;7.00;;
1715;SDS011;855;48.824;9.220;2022-08-26T13:11:00;15.97;;;6.70;;
1715;SDS011;855;48.824;9.220;2022-08-26T13:13:30;12.23;;;6.80;;
1715;SDS011;855;48.824;9.220;2022-08-26T13:15:57;17.83;;;6.87;;
1715;SDS011;855;48.824;9.220;2022-08-26T13:18:24;13.10;;;6.20;;
1715;SDS011;855;48.824;9.220;2022-08-26T13:20:50;16.57;;;5.90;;
1715;SDS011;855;48.824;9.220;2022-08-26T13:23:17;18.53;;;6.43;;
1715;SDS011;855;48.824;9.220;2022-08-26T13:25:47;16.33;;;6.50;;
1715;SDS011;855;48.824;9.220;2022-08-26T13:28:14;17.83;;;6.83;;
1715;SDS011;855;48.824;9.220;2022-08-26T13:30:41;20.17;;;5.67;;
1715;SDS011;855;48.824;9.220;2022-08-26T13:33:11;12.10;;;4.70;;
1715;SDS011;855;48.824;9.220;2022-08-26T13:35:40;12.37;;;5.53;;
1715;SDS011;855;48.824;9.220;2022-08-26T13:38:07;19.50;;;5.50;;
1715;SDS011;855;48.824;9.220;2022-08-26T13:40:38;11.40;;;4.90;;
1715;SDS011;855;48.824;9.220;2022-08-26T13:43:08;12.40;;;4.80;;
1715;SDS011;855;48.824;9.220;2022-08-26T13:45:36;9.80;;;5.53;;
1715;SDS011;855;48.824;9.220;2022-08-26T13:48:03;10.13;;;4.70;;
1715;SDS011;855;48.824;9.220;2022-08-26T13:50:31;12.47;;;4.10;;
1715;SDS011;855;48.824;9.220;2022-08-26T13:52:58;13.50;;;4.47;;
1715;SDS011;855;48.824;9.220;2022-08-26T13:55:26;13.80;;;6.57;;
1715;SDS011;855;48.824;9.220;2022-08-26T13:57:52;15.37;;;5.50;;
1715;SDS011;855;48.824;9.220;2022-08-26T14:00:21;15.50;;;5.10;;
1715;SDS011;855;48.824;9.220;2022-08-26T14:02:48;15.53;;;7.13;;
1715;SDS011;855;48.824;9.220;2022-08-26T14:05:15;12.40;;;6.00;;
1715;SDS011;855;48.824;9.220;2022-08-26T14:07:42;17.37;;;6.10;;
1715;SDS011;855;48.824;9.220;2022-08-26T14:10:09;15.20;;;5.93;;
1715;SDS011;855;48.824;9.220;2022-08-26T14:12:36;15.40;;;6.07;;
1715;SDS011;855;48.824;9.220;2022-08-26T14:15:05;12.60;;;5.50;;
1715;SDS011;855;48.824;9.220;2022-08-26T14:17:33;8.30;;;5.27;;
1715;SDS011;855;48.824;9.220;2022-08-26T14:20:00;14.87;;;6.23;;
1715;SDS011;855;48.824;9.220;2022-08-26T14:22:28;14.40;;;6.10;;
1715;SDS011;855;48.824;9.220;2022-08-26T14:24:55;11.10;;;5.70;;
1715;SDS011;855;48.824;9.220;2022-08-26T14:27:22;16.97;;;6.83;;
1715;SDS011;855;48.824;9.220;2022-08-26T14:29:49;14.83;;;6.53;;
1715;SDS011;855;48.824;9.220;2022-08-26T14:32:18;10.77;;;6.50;;
1715;SDS011;855;48.824;9.220;2022-08-26T14:34:50;13.23;;;6.07;;
1715;SDS011;855;48.824;9.220;2022-08-26T14:37:17;19.00;;;6.83;;
1715;SDS011;855;48.824;9.220;2022-08-26T14:39:43;16.03;;;6.13;;
1715;SDS011;855;48.824;9.220;2022-08-26T14:42:11;9.50;;;5.70;;
1715;SDS011;855;48.824;9.220;2022-08-26T14:44:40;17.37;;;6.83;;
1715;SDS011;855;48.824;9.220;2022-08-26T14:47:11;14.23;;;5.80;;
1715;SDS011;855;48.824;9.220;2022-08-26T14:49:37;15.93;;;6.13;;
1715;SDS011;855;48.824;9.220;2022-08-26T14:52:06;13.17;;;6.20;;
1715;SDS011;855;48.824;9.220;2022-08-26T14:54:33;16.17;;;6.40;;
1715;SDS011;855;48.824;9.220;2022-08-26T14:56:59;12.57;;;6.43;;
1715;SDS011;855;48.824;9.220;2022-08-26T14:59:30;15.17;;;6.03;;
1715;SDS011;855;48.824;9.220;2022-08-26T15:01:58;12.80;;;6.33;;
1715;SDS011;855;48.824;9.220;2022-08-26T15:04:25;14.77;;;6.60;;
1715;SDS011;855;48.824;9.220;2022-08-26T15:06:53;20.80;;;6.37;;
1715;SDS011;855;48.824;9.220;2022-08-26T15:09:24;25.50;;;5.70;;
1715;SDS011;855;48.824;9.220;2022-08-26T15:11:53;14.63;;;6.60;;
1715;SDS011;855;48.824;9.220;2022-08-26T15:14:20;23.30;;;7.27;;
1715;SDS011;855;48.824;9.220;2022-08-26T15:16:48;22.27;;;7.43;;
1715;SDS011;855;48.824;9.220;2022-08-26T15:19:17;16.40;;;6.87;;
1715;SDS011;855;48.824;9.220;2022-08-26T15:21:45;20.07;;;7.03;;
1715;SDS011;855;48.824;9.220;2022-08-26T15:24:13;25.43;;;7.27;;
1715;SDS011;855;48.824;9.220;2022-08-26T15:26:43;24.33;;;6.40;;
1715;SDS011;855;48.824;9.220;2022-08-26T15:29:10;18.37;;;7.27;;
1715;SDS011;855;48.824;9.220;2022-08-26T15:31:37;15.40;;;7.27;;
1715;SDS011;855;48.824;9.220;2022-08-26T15:34:05;18.13;;;6.83;;
1715;SDS011;855;48.824;9.220;2022-08-26T15:36:34;35.73;;;7.00;;
1715;SDS011;855;48.824;9.220;2022-08-26T15:39:02;22.30;;;7.03;;
1715;SDS011;855;48.824;9.220;2022-08-26T15:41:36;11.90;;;5.87;;
1715;SDS011;855;48.824;9.220;2022-08-26T15:44:04;29.23;;;7.60;;
1715;SDS011;855;48.824;9.220;2022-08-26T15:46:33;15.07;;;7.77;;
1715;SDS011;855;48.824;9.220;2022-08-26T15:49:01;15.33;;;6.83;;
1715;SDS011;855;48.824;9.220;2022-08-26T15:51:28;16.10;;;6.37;;
1715;SDS011;855;48.824;9.220;2022-08-26T15:53:57;25.87;;;11.17;;
1715;SDS011;855;48.824;9.220;2022-08-26T15:56:25;17.50;;;5.80;;